CYRQ

Trois-Rivieres Airport

Trois-Rivieres, , Canada
TAF CYRQ 171338Z 1714/1802 05005KT P6SM BKN050 FM171800 VRB03KT P6SM -SHRA BKN030 OVC080 FM172000 05008KT P6SM -SHRA OVC025 TEMPO 1720/1724 4SM -SHRA BR OVC015 FM180000 04008KT 6SM -SHRA BR FEW008 OVC025 TEMPO 1800/1802 3SM -SHRA BR OVC008 PROB30 1800/1802 OVC006 RMK FCST BASED ON AUTO OBS. NXT FCST BY 172000Z
Issued Valid From Valid To
Aug-17 @ 13:38 UTC
(an hour ago)
Aug-17 @ 14:00 UTC
(56 minutes ago)
Aug-18 @ 02:00 UTC
(in 11 hours)
Aug-17 @ 14:00 to Aug-17 @ 18:00
TAF CYRQ 171338Z 1714/1802 05005KT P6SM BKN050
Wind Visibility Clouds
50° at 5 knots Greater than 6 miles
  • Broken at 5,000' AGL
From Aug-17 @ 18:00 to Aug-17 @ 20:00
FM171800 VRB03KT P6SM -SHRA BKN030 OVC080
Wind Visibility Clouds Conditions
Variable at 3 knots Greater than 6 miles
  • Broken at 3,000' AGL
  • Overcast at 8,000' AGL
  • Light Rain
From Aug-17 @ 20:00 to Aug-18 @ 00:00
FM172000 05008KT P6SM -SHRA OVC025
Wind Visibility Clouds Conditions
50° at 8 knots Greater than 6 miles
  • Overcast at 2,500' AGL
  • Light Rain
Temporary Aug-17 @ 20:00 to Aug-18 @ 00:00
TEMPO 1720/1724 4SM -SHRA BR OVC015
Visibility Clouds Conditions
4 miles
  • Overcast at 1,500' AGL
  • Light Rain
  • Mist
From Aug-18 @ 00:00 to Aug-18 @ 02:00
FM180000 04008KT 6SM -SHRA BR FEW008 OVC025
Wind Visibility Clouds Conditions
40° at 8 knots 6 miles
  • Few at 800' AGL
  • Overcast at 2,500' AGL
  • Light Rain
  • Mist
Temporary Aug-18 @ 00:00 to Aug-18 @ 02:00
TEMPO 1800/1802 3SM -SHRA BR OVC008
Visibility Clouds Conditions
3 miles
  • Overcast at 800' AGL
  • Light Rain
  • Mist
Probable  (Probability 30%) Aug-18 @ 00:00 to Aug-18 @ 02:00
PROB30 1800/1802 OVC006 RMK FCST BASED ON AUTO OBS. NXT FCST BY 172000Z
Clouds
  • Overcast at 600' AGL
TAF CYRQ 171338Z 1714/1802 05005KT P6SM BKN050 FM171800 VRB03KT P6SM -SHRA BKN030 OVC080 FM172000 05008KT P6SM -SHRA OVC025 TEMPO 1720/1724 4SM -SHRA BR OVC015 FM180000 04008KT 6SM -SHRA BR FEW008 OVC025 TEMPO 1800/1802 3SM -SHRA BR OVC008 PROB30 1800/1802 OVC006 RMK FCST BASED ON AUTO OBS. NXT FCST BY 172000Z
Issued Aug-17 @ 13:38 UTC
(an hour ago)
Valid From Aug-17 @ 14:00 UTC
(56 minutes ago)
Valid To Aug-18 @ 02:00 UTC
(in 11 hours)
Aug-17 @ 14:00 - Aug-17 @ 18:00
Wind Visibility
50° at 5 knots Greater than 6 miles
Clouds
  • Broken at 5,000' AGL
From Aug-17 @ 18:00 - Aug-17 @ 20:00
Wind Visibility
Variable at 3 knots Greater than 6 miles
Clouds
  • Broken at 3,000' AGL
  • Overcast at 8,000' AGL
Conditions
  • Light Rain
From Aug-17 @ 20:00 - Aug-18 @ 00:00
Wind Visibility
50° at 8 knots Greater than 6 miles
Clouds
  • Overcast at 2,500' AGL
Conditions
  • Light Rain
Temporary Aug-17 @ 20:00 - Aug-18 @ 00:00
Clouds
  • Overcast at 1,500' AGL
Conditions
  • Light Rain
  • Mist
From Aug-18 @ 00:00 - Aug-18 @ 02:00
Wind Visibility
40° at 8 knots 6 miles
Clouds
  • Few at 800' AGL
  • Overcast at 2,500' AGL
Conditions
  • Light Rain
  • Mist
Temporary Aug-18 @ 00:00 - Aug-18 @ 02:00
Clouds
  • Overcast at 800' AGL
Conditions
  • Light Rain
  • Mist
Probability 30% Probable Aug-18 @ 00:00 - Aug-18 @ 02:00
Clouds
  • Overcast at 600' AGL